<?xml version="1.0" encoding="UTF-8" standalone="no" ?>
<gpx xmlns="http://www.topografix.com/GPX/1/1" xmlns:xsi="http://www.w3.org/2001/XMLSchema-instance" xsi:schemaLocation="http://www.topografix.com/GPX/1/1 http://www.topografix.com/GPX/1/1/gpx.xsd" version="1.1" creator="VisuGPX - https://www.visugpx.com">
  <metadata>
    <name>De Meyrie à Vallin</name>
    <desc><![CDATA[Boucle de Meyrie à Vallin]]></desc>
  </metadata>
  <trk>
    <name><![CDATA[De Meyrie à Vallin_1]]></name>
    <trkseg>
      <trkpt lat="45.55998" lon="5.28333">
        <ele>370</ele>
        <time>2020-12-02T01:54:02Z</time>
      </trkpt>
      <trkpt lat="45.55991" lon="5.2838">
        <ele>370</ele>
        <time>2020-12-02T01:53:45Z</time>
      </trkpt>
      <trkpt lat="45.55985" lon="5.28389">
        <ele>370</ele>
        <time>2020-12-02T01:53:40Z</time>
      </trkpt>
      <trkpt lat="45.55979" lon="5.28393">
        <ele>370</ele>
        <time>2020-12-02T01:53:37Z</time>
      </trkpt>
      <trkpt lat="45.55953" lon="5.28399">
        <ele>370</ele>
        <time>2020-12-02T01:53:24Z</time>
      </trkpt>
      <trkpt lat="45.55962" lon="5.28495">
        <ele>369</ele>
        <time>2020-12-02T01:52:50Z</time>
      </trkpt>
      <trkpt lat="45.55891" lon="5.28525">
        <ele>368</ele>
        <time>2020-12-02T01:52:13Z</time>
      </trkpt>
      <trkpt lat="45.55881" lon="5.28542">
        <ele>368</ele>
        <time>2020-12-02T01:52:05Z</time>
      </trkpt>
      <trkpt lat="45.55881" lon="5.28557">
        <ele>368</ele>
        <time>2020-12-02T01:52:00Z</time>
      </trkpt>
      <trkpt lat="45.5589" lon="5.28611">
        <ele>368</ele>
        <time>2020-12-02T01:51:40Z</time>
      </trkpt>
      <trkpt lat="45.5589" lon="5.28639">
        <ele>367</ele>
        <time>2020-12-02T01:51:31Z</time>
      </trkpt>
      <trkpt lat="45.55886" lon="5.28659">
        <ele>367</ele>
        <time>2020-12-02T01:51:23Z</time>
      </trkpt>
      <trkpt lat="45.55857" lon="5.28689">
        <ele>365</ele>
        <time>2020-12-02T01:51:05Z</time>
      </trkpt>
      <trkpt lat="45.55855" lon="5.28771">
        <ele>364</ele>
        <time>2020-12-02T01:50:37Z</time>
      </trkpt>
      <trkpt lat="45.55857" lon="5.28809">
        <ele>363</ele>
        <time>2020-12-02T01:50:23Z</time>
      </trkpt>
      <trkpt lat="45.55866" lon="5.28862">
        <ele>363</ele>
        <time>2020-12-02T01:50:04Z</time>
      </trkpt>
      <trkpt lat="45.55881" lon="5.29001">
        <ele>361</ele>
        <time>2020-12-02T01:49:15Z</time>
      </trkpt>
      <trkpt lat="45.55885" lon="5.29072">
        <ele>359</ele>
        <time>2020-12-02T01:48:50Z</time>
      </trkpt>
      <trkpt lat="45.55905" lon="5.29118">
        <ele>358</ele>
        <time>2020-12-02T01:48:31Z</time>
      </trkpt>
      <trkpt lat="45.55924" lon="5.29216">
        <ele>352</ele>
        <time>2020-12-02T01:47:55Z</time>
      </trkpt>
      <trkpt lat="45.55944" lon="5.29342">
        <ele>347</ele>
        <time>2020-12-02T01:47:10Z</time>
      </trkpt>
      <trkpt lat="45.55953" lon="5.29372">
        <ele>347</ele>
        <time>2020-12-02T01:46:59Z</time>
      </trkpt>
      <trkpt lat="45.55948" lon="5.2939">
        <ele>347</ele>
        <time>2020-12-02T01:46:52Z</time>
      </trkpt>
      <trkpt lat="45.55952" lon="5.2941">
        <ele>346</ele>
        <time>2020-12-02T01:46:45Z</time>
      </trkpt>
      <trkpt lat="45.55959" lon="5.295">
        <ele>352</ele>
        <time>2020-12-02T01:46:13Z</time>
      </trkpt>
      <trkpt lat="45.55941" lon="5.29521">
        <ele>355</ele>
        <time>2020-12-02T01:46:01Z</time>
      </trkpt>
      <trkpt lat="45.55918" lon="5.29561">
        <ele>362</ele>
        <time>2020-12-02T01:45:43Z</time>
      </trkpt>
      <trkpt lat="45.55902" lon="5.29608">
        <ele>362</ele>
        <time>2020-12-02T01:45:25Z</time>
      </trkpt>
      <trkpt lat="45.55824" lon="5.29741">
        <ele>369</ele>
        <time>2020-12-02T01:44:24Z</time>
      </trkpt>
      <trkpt lat="45.55761" lon="5.29819">
        <ele>374</ele>
        <time>2020-12-02T01:43:42Z</time>
      </trkpt>
      <trkpt lat="45.55723" lon="5.29876">
        <ele>369</ele>
        <time>2020-12-02T01:43:15Z</time>
      </trkpt>
      <trkpt lat="45.55697" lon="5.29933">
        <ele>365</ele>
        <time>2020-12-02T01:42:51Z</time>
      </trkpt>
      <trkpt lat="45.55678" lon="5.29953">
        <ele>364</ele>
        <time>2020-12-02T01:42:39Z</time>
      </trkpt>
      <trkpt lat="45.55647" lon="5.29977">
        <ele>362</ele>
        <time>2020-12-02T01:42:21Z</time>
      </trkpt>
      <trkpt lat="45.55627" lon="5.29996">
        <ele>360</ele>
        <time>2020-12-02T01:42:09Z</time>
      </trkpt>
      <trkpt lat="45.55607" lon="5.30029">
        <ele>354</ele>
        <time>2020-12-02T01:41:54Z</time>
      </trkpt>
      <trkpt lat="45.55555" lon="5.30012">
        <ele>351</ele>
        <time>2020-12-02T01:41:27Z</time>
      </trkpt>
      <trkpt lat="45.55423" lon="5.29976">
        <ele>351</ele>
        <time>2020-12-02T01:40:20Z</time>
      </trkpt>
      <trkpt lat="45.55447" lon="5.30037">
        <ele>349.4</ele>
      </trkpt>
      <trkpt lat="45.5543" lon="5.30075">
        <ele>348.5</ele>
      </trkpt>
      <trkpt lat="45.55421" lon="5.30107">
        <ele>347.1</ele>
      </trkpt>
      <trkpt lat="45.55337" lon="5.30142">
        <ele>350.7</ele>
      </trkpt>
      <trkpt lat="45.55298" lon="5.30142">
        <ele>359.7</ele>
      </trkpt>
      <trkpt lat="45.55262" lon="5.30158">
        <ele>367</ele>
        <time>2020-12-01T21:09:12Z</time>
      </trkpt>
      <trkpt lat="45.55263" lon="5.30171">
        <ele>365</ele>
        <time>2020-12-01T21:09:17Z</time>
      </trkpt>
      <trkpt lat="45.55237" lon="5.30219">
        <ele>358</ele>
        <time>2020-12-01T21:09:38Z</time>
      </trkpt>
      <trkpt lat="45.55068" lon="5.30281">
        <ele>367</ele>
        <time>2020-12-01T21:11:06Z</time>
      </trkpt>
      <trkpt lat="45.55001" lon="5.30415">
        <ele>366</ele>
        <time>2020-12-01T21:12:03Z</time>
      </trkpt>
      <trkpt lat="45.54931" lon="5.30498">
        <ele>361</ele>
        <time>2020-12-01T21:12:49Z</time>
      </trkpt>
      <trkpt lat="45.54905" lon="5.30629">
        <ele>343</ele>
        <time>2020-12-01T21:13:37Z</time>
      </trkpt>
      <trkpt lat="45.54866" lon="5.30798">
        <ele>331</ele>
        <time>2020-12-01T21:14:39Z</time>
      </trkpt>
      <trkpt lat="45.54794" lon="5.3091">
        <ele>338</ele>
        <time>2020-12-01T21:15:32Z</time>
      </trkpt>
      <trkpt lat="45.54743" lon="5.30974">
        <ele>337</ele>
        <time>2020-12-01T21:16:06Z</time>
      </trkpt>
      <trkpt lat="45.5467" lon="5.30995">
        <ele>340</ele>
        <time>2020-12-01T21:16:43Z</time>
      </trkpt>
      <trkpt lat="45.54679" lon="5.31205">
        <ele>328</ele>
        <time>2020-12-01T21:17:57Z</time>
      </trkpt>
      <trkpt lat="45.54658" lon="5.31265">
        <ele>328</ele>
        <time>2020-12-01T21:18:21Z</time>
      </trkpt>
      <trkpt lat="45.54602" lon="5.3129">
        <ele>328</ele>
        <time>2020-12-01T21:18:50Z</time>
      </trkpt>
      <trkpt lat="45.54551" lon="5.31294">
        <ele>328</ele>
        <time>2020-12-01T21:19:16Z</time>
      </trkpt>
      <trkpt lat="45.5432" lon="5.31421">
        <ele>339</ele>
        <time>2020-12-01T21:21:19Z</time>
      </trkpt>
      <trkpt lat="45.54224" lon="5.3177">
        <ele>357</ele>
        <time>2020-12-01T21:23:31Z</time>
      </trkpt>
      <trkpt lat="45.54236" lon="5.31778">
        <ele>355.5</ele>
      </trkpt>
      <trkpt lat="45.54241" lon="5.3181">
        <ele>356.6</ele>
      </trkpt>
      <trkpt lat="45.54259" lon="5.3185">
        <ele>357.6</ele>
      </trkpt>
      <trkpt lat="45.54269" lon="5.3187">
        <ele>357.9</ele>
      </trkpt>
      <trkpt lat="45.54273" lon="5.31933">
        <ele>362.1</ele>
      </trkpt>
      <trkpt lat="45.54285" lon="5.31981">
        <ele>362.8</ele>
      </trkpt>
      <trkpt lat="45.54309" lon="5.32038">
        <ele>364.2</ele>
      </trkpt>
      <trkpt lat="45.54344" lon="5.32106">
        <ele>366</ele>
      </trkpt>
      <trkpt lat="45.54364" lon="5.32146">
        <ele>366.5</ele>
      </trkpt>
      <trkpt lat="45.54378" lon="5.32192">
        <ele>367.5</ele>
      </trkpt>
      <trkpt lat="45.54392" lon="5.32233">
        <ele>368.6</ele>
      </trkpt>
      <trkpt lat="45.54413" lon="5.32291">
        <ele>370.7</ele>
      </trkpt>
      <trkpt lat="45.54416" lon="5.32313">
        <ele>372.2</ele>
      </trkpt>
      <trkpt lat="45.54414" lon="5.32337">
        <ele>374.7</ele>
      </trkpt>
      <trkpt lat="45.54395" lon="5.32378">
        <ele>379.6</ele>
      </trkpt>
      <trkpt lat="45.54371" lon="5.32434">
        <ele>385.9</ele>
      </trkpt>
      <trkpt lat="45.54356" lon="5.32476">
        <ele>387.5</ele>
      </trkpt>
      <trkpt lat="45.54344" lon="5.32546">
        <ele>386.8</ele>
      </trkpt>
      <trkpt lat="45.54332" lon="5.32612">
        <ele>386.3</ele>
      </trkpt>
      <trkpt lat="45.54318" lon="5.32672">
        <ele>386.7</ele>
      </trkpt>
      <trkpt lat="45.54307" lon="5.3273">
        <ele>387.8</ele>
      </trkpt>
      <trkpt lat="45.54297" lon="5.32825">
        <ele>391.4</ele>
      </trkpt>
      <trkpt lat="45.54299" lon="5.32847">
        <ele>391.6</ele>
      </trkpt>
      <trkpt lat="45.54298" lon="5.32903">
        <ele>393.9</ele>
      </trkpt>
      <trkpt lat="45.54288" lon="5.32955">
        <ele>394</ele>
      </trkpt>
      <trkpt lat="45.54267" lon="5.33006">
        <ele>394.6</ele>
      </trkpt>
      <trkpt lat="45.5423" lon="5.33053">
        <ele>393.3</ele>
      </trkpt>
      <trkpt lat="45.54185" lon="5.33069">
        <ele>395.2</ele>
      </trkpt>
      <trkpt lat="45.54126" lon="5.33085">
        <ele>395.7</ele>
      </trkpt>
      <trkpt lat="45.54076" lon="5.33111">
        <ele>395</ele>
      </trkpt>
      <trkpt lat="45.54007" lon="5.33153">
        <ele>391</ele>
      </trkpt>
      <trkpt lat="45.53948" lon="5.33192">
        <ele>392.5</ele>
      </trkpt>
      <trkpt lat="45.53902" lon="5.33227">
        <ele>393.7</ele>
      </trkpt>
      <trkpt lat="45.53826" lon="5.33287">
        <ele>397.5</ele>
      </trkpt>
      <trkpt lat="45.53804" lon="5.33335">
        <ele>398</ele>
      </trkpt>
      <trkpt lat="45.538" lon="5.33378">
        <ele>398.2</ele>
      </trkpt>
      <trkpt lat="45.53815" lon="5.33487">
        <ele>395.5</ele>
      </trkpt>
      <trkpt lat="45.53818" lon="5.33579">
        <ele>399.4</ele>
      </trkpt>
      <trkpt lat="45.53789" lon="5.33708">
        <ele>401.5</ele>
      </trkpt>
      <trkpt lat="45.53755" lon="5.33783">
        <ele>402.3</ele>
      </trkpt>
      <trkpt lat="45.53704" lon="5.33921">
        <ele>398.3</ele>
      </trkpt>
      <trkpt lat="45.53665" lon="5.34066">
        <ele>396.1</ele>
      </trkpt>
      <trkpt lat="45.53638" lon="5.34107">
        <ele>400.6</ele>
      </trkpt>
      <trkpt lat="45.53609" lon="5.34165">
        <ele>403.6</ele>
      </trkpt>
      <trkpt lat="45.53525" lon="5.34238">
        <ele>406.5</ele>
      </trkpt>
      <trkpt lat="45.53454" lon="5.34257">
        <ele>411.7</ele>
      </trkpt>
      <trkpt lat="45.53436" lon="5.34303">
        <ele>411.1</ele>
      </trkpt>
      <trkpt lat="45.534" lon="5.34371">
        <ele>414.3</ele>
      </trkpt>
      <trkpt lat="45.53383" lon="5.3442">
        <ele>420.3</ele>
      </trkpt>
      <trkpt lat="45.53381" lon="5.34448">
        <ele>420.4</ele>
      </trkpt>
      <trkpt lat="45.53365" lon="5.34522">
        <ele>422.3</ele>
      </trkpt>
      <trkpt lat="45.53359" lon="5.34594">
        <ele>423.7</ele>
      </trkpt>
      <trkpt lat="45.53361" lon="5.34656">
        <ele>424.8</ele>
      </trkpt>
      <trkpt lat="45.5336" lon="5.34706">
        <ele>424.4</ele>
      </trkpt>
      <trkpt lat="45.5336" lon="5.34763">
        <ele>423</ele>
      </trkpt>
      <trkpt lat="45.53366" lon="5.34828">
        <ele>421.4</ele>
      </trkpt>
      <trkpt lat="45.53364" lon="5.34866">
        <ele>422.1</ele>
      </trkpt>
      <trkpt lat="45.5334" lon="5.34916">
        <ele>420</ele>
      </trkpt>
      <trkpt lat="45.53331" lon="5.34937">
        <ele>419.6</ele>
      </trkpt>
      <trkpt lat="45.53305" lon="5.34948">
        <ele>421.2</ele>
      </trkpt>
      <trkpt lat="45.53286" lon="5.34986">
        <ele>422.6</ele>
      </trkpt>
      <trkpt lat="45.53284" lon="5.35025">
        <ele>423</ele>
      </trkpt>
      <trkpt lat="45.53285" lon="5.35054">
        <ele>423.2</ele>
      </trkpt>
      <trkpt lat="45.53272" lon="5.35083">
        <ele>423.3</ele>
      </trkpt>
      <trkpt lat="45.53274" lon="5.3512">
        <ele>423.1</ele>
      </trkpt>
      <trkpt lat="45.53263" lon="5.35174">
        <ele>422.6</ele>
      </trkpt>
      <trkpt lat="45.53217" lon="5.35223">
        <ele>425.2</ele>
      </trkpt>
      <trkpt lat="45.53216" lon="5.35232">
        <ele>425.4</ele>
      </trkpt>
      <trkpt lat="45.53236" lon="5.35262">
        <ele>425.2</ele>
      </trkpt>
      <trkpt lat="45.5325" lon="5.35306">
        <ele>426.7</ele>
      </trkpt>
      <trkpt lat="45.53247" lon="5.35335">
        <ele>428.1</ele>
      </trkpt>
      <trkpt lat="45.53238" lon="5.35356">
        <ele>428.9</ele>
      </trkpt>
      <trkpt lat="45.53237" lon="5.35408">
        <ele>430.1</ele>
      </trkpt>
      <trkpt lat="45.53235" lon="5.35427">
        <ele>430.9</ele>
      </trkpt>
      <trkpt lat="45.53216" lon="5.3542">
        <ele>430.9</ele>
      </trkpt>
      <trkpt lat="45.5318" lon="5.35434">
        <ele>431.8</ele>
      </trkpt>
      <trkpt lat="45.5312" lon="5.35436">
        <ele>436.1</ele>
      </trkpt>
      <trkpt lat="45.53081" lon="5.35442">
        <ele>439.3</ele>
      </trkpt>
      <trkpt lat="45.53048" lon="5.35442">
        <ele>442.2</ele>
      </trkpt>
      <trkpt lat="45.53014" lon="5.35442">
        <ele>445</ele>
      </trkpt>
      <trkpt lat="45.52982" lon="5.35535">
        <ele>445</ele>
      </trkpt>
      <trkpt lat="45.53029" lon="5.35596">
        <ele>442.6</ele>
      </trkpt>
      <trkpt lat="45.53076" lon="5.35663">
        <ele>444</ele>
      </trkpt>
      <trkpt lat="45.53103" lon="5.35884">
        <ele>454</ele>
      </trkpt>
      <trkpt lat="45.53127" lon="5.36103">
        <ele>452.9</ele>
      </trkpt>
      <trkpt lat="45.53163" lon="5.36163">
        <ele>447</ele>
      </trkpt>
      <trkpt lat="45.53212" lon="5.36197">
        <ele>447.1</ele>
      </trkpt>
      <trkpt lat="45.5328" lon="5.36151">
        <ele>448</ele>
      </trkpt>
      <trkpt lat="45.53307" lon="5.36145">
        <ele>449.7</ele>
      </trkpt>
      <trkpt lat="45.53329" lon="5.36175">
        <ele>451</ele>
      </trkpt>
      <trkpt lat="45.53333" lon="5.36245">
        <ele>453.8</ele>
      </trkpt>
      <trkpt lat="45.53348" lon="5.36448">
        <ele>455.2</ele>
      </trkpt>
      <trkpt lat="45.5335" lon="5.36567">
        <ele>457</ele>
      </trkpt>
      <trkpt lat="45.53356" lon="5.36615">
        <ele>457.7</ele>
      </trkpt>
      <trkpt lat="45.53395" lon="5.3689">
        <ele>460.6</ele>
      </trkpt>
      <trkpt lat="45.53472" lon="5.37036">
        <ele>459</ele>
      </trkpt>
      <trkpt lat="45.53501" lon="5.37179">
        <ele>458</ele>
      </trkpt>
      <trkpt lat="45.53523" lon="5.37409">
        <ele>459.2</ele>
      </trkpt>
      <trkpt lat="45.53574" lon="5.376">
        <ele>459.1</ele>
      </trkpt>
      <trkpt lat="45.53635" lon="5.37779">
        <ele>454</ele>
      </trkpt>
      <trkpt lat="45.53661" lon="5.37898">
        <ele>456.5</ele>
      </trkpt>
      <trkpt lat="45.53603" lon="5.37916">
        <ele>459.3</ele>
      </trkpt>
      <trkpt lat="45.53584" lon="5.37904">
        <ele>459.7</ele>
      </trkpt>
      <trkpt lat="45.53557" lon="5.37946">
        <ele>459.4</ele>
      </trkpt>
      <trkpt lat="45.53563" lon="5.38022">
        <ele>458.7</ele>
      </trkpt>
      <trkpt lat="45.53542" lon="5.38189">
        <ele>460.1</ele>
      </trkpt>
      <trkpt lat="45.53533" lon="5.38328">
        <ele>459.9</ele>
      </trkpt>
      <trkpt lat="45.5353" lon="5.38437">
        <ele>463</ele>
        <time>2020-12-01T23:51:30Z</time>
      </trkpt>
      <trkpt lat="45.53537" lon="5.38481">
        <ele>463</ele>
      </trkpt>
      <trkpt lat="45.53542" lon="5.38526">
        <ele>463.2</ele>
      </trkpt>
      <trkpt lat="45.53548" lon="5.38605">
        <ele>463.4</ele>
      </trkpt>
      <trkpt lat="45.53557" lon="5.38682">
        <ele>464.1</ele>
      </trkpt>
      <trkpt lat="45.53569" lon="5.38776">
        <ele>466.1</ele>
      </trkpt>
      <trkpt lat="45.53581" lon="5.38872">
        <ele>464.2</ele>
      </trkpt>
      <trkpt lat="45.53593" lon="5.38961">
        <ele>458.5</ele>
      </trkpt>
      <trkpt lat="45.53578" lon="5.38967">
        <ele>459.3</ele>
      </trkpt>
      <trkpt lat="45.53557" lon="5.38954">
        <ele>461.3</ele>
      </trkpt>
      <trkpt lat="45.53537" lon="5.38953">
        <ele>462.5</ele>
      </trkpt>
      <trkpt lat="45.53505" lon="5.38975">
        <ele>464</ele>
      </trkpt>
      <trkpt lat="45.53507" lon="5.39016">
        <ele>462.8</ele>
      </trkpt>
      <trkpt lat="45.535" lon="5.39092">
        <ele>461.1</ele>
      </trkpt>
      <trkpt lat="45.53511" lon="5.39143">
        <ele>459.6</ele>
      </trkpt>
      <trkpt lat="45.53529" lon="5.39177">
        <ele>455.9</ele>
      </trkpt>
      <trkpt lat="45.53524" lon="5.39221">
        <ele>455.8</ele>
      </trkpt>
      <trkpt lat="45.53505" lon="5.39265">
        <ele>457.5</ele>
      </trkpt>
      <trkpt lat="45.53495" lon="5.39276">
        <ele>458.3</ele>
      </trkpt>
      <trkpt lat="45.5347" lon="5.39312">
        <ele>460.1</ele>
      </trkpt>
      <trkpt lat="45.53439" lon="5.39353">
        <ele>463.1</ele>
      </trkpt>
      <trkpt lat="45.53417" lon="5.39406">
        <ele>463</ele>
      </trkpt>
      <trkpt lat="45.53412" lon="5.39469">
        <ele>462.8</ele>
      </trkpt>
      <trkpt lat="45.53412" lon="5.39515">
        <ele>461.1</ele>
      </trkpt>
      <trkpt lat="45.53411" lon="5.39543">
        <ele>459.2</ele>
      </trkpt>
      <trkpt lat="45.53398" lon="5.39551">
        <ele>461.7</ele>
      </trkpt>
      <trkpt lat="45.53382" lon="5.39552">
        <ele>465.1</ele>
      </trkpt>
      <trkpt lat="45.5337" lon="5.39524">
        <ele>471.6</ele>
      </trkpt>
      <trkpt lat="45.53362" lon="5.39533">
        <ele>472.5</ele>
      </trkpt>
      <trkpt lat="45.53324" lon="5.39559">
        <ele>475.7</ele>
      </trkpt>
      <trkpt lat="45.53277" lon="5.3957">
        <ele>478.6</ele>
      </trkpt>
      <trkpt lat="45.53227" lon="5.39556">
        <ele>482.2</ele>
      </trkpt>
      <trkpt lat="45.53192" lon="5.39524">
        <ele>484.8</ele>
      </trkpt>
      <trkpt lat="45.53147" lon="5.39488">
        <ele>487.8</ele>
      </trkpt>
      <trkpt lat="45.53091" lon="5.39479">
        <ele>487.4</ele>
      </trkpt>
      <trkpt lat="45.53042" lon="5.39442">
        <ele>495.1</ele>
      </trkpt>
      <trkpt lat="45.52979" lon="5.39425">
        <ele>496.7</ele>
      </trkpt>
      <trkpt lat="45.52928" lon="5.39371">
        <ele>499.4</ele>
      </trkpt>
      <trkpt lat="45.52868" lon="5.3931">
        <ele>503.3</ele>
      </trkpt>
      <trkpt lat="45.52774" lon="5.39222">
        <ele>510.4</ele>
      </trkpt>
      <trkpt lat="45.52693" lon="5.39139">
        <ele>515.7</ele>
      </trkpt>
      <trkpt lat="45.52671" lon="5.39007">
        <ele>516.9</ele>
      </trkpt>
      <trkpt lat="45.52669" lon="5.38922">
        <ele>517.9</ele>
      </trkpt>
      <trkpt lat="45.52669" lon="5.38738">
        <ele>519.3</ele>
      </trkpt>
      <trkpt lat="45.52656" lon="5.38617">
        <ele>520.9</ele>
      </trkpt>
      <trkpt lat="45.52596" lon="5.38595">
        <ele>520.2</ele>
      </trkpt>
      <trkpt lat="45.52621" lon="5.38488">
        <ele>521.1</ele>
      </trkpt>
      <trkpt lat="45.52615" lon="5.38488">
        <ele>521</ele>
        <time>2020-12-01T23:59:13Z</time>
      </trkpt>
      <trkpt lat="45.52634" lon="5.384">
        <ele>524</ele>
        <time>2020-12-01T23:59:46Z</time>
      </trkpt>
      <trkpt lat="45.52636" lon="5.38335">
        <ele>526</ele>
        <time>2020-12-02T00:00:08Z</time>
      </trkpt>
      <trkpt lat="45.52663" lon="5.38252">
        <ele>529</ele>
        <time>2020-12-02T00:00:41Z</time>
      </trkpt>
      <trkpt lat="45.52695" lon="5.38054">
        <ele>524</ele>
        <time>2020-12-02T00:01:52Z</time>
      </trkpt>
      <trkpt lat="45.52798" lon="5.37827">
        <ele>519</ele>
        <time>2020-12-02T00:03:27Z</time>
      </trkpt>
      <trkpt lat="45.52873" lon="5.37552">
        <ele>513</ele>
        <time>2020-12-02T00:05:10Z</time>
      </trkpt>
      <trkpt lat="45.52873" lon="5.37505">
        <ele>510</ele>
        <time>2020-12-02T00:05:27Z</time>
      </trkpt>
      <trkpt lat="45.52879" lon="5.37475">
        <ele>509</ele>
        <time>2020-12-02T00:05:37Z</time>
      </trkpt>
      <trkpt lat="45.52864" lon="5.37428">
        <ele>506</ele>
        <time>2020-12-02T00:05:56Z</time>
      </trkpt>
      <trkpt lat="45.52863" lon="5.37214">
        <ele>511</ele>
        <time>2020-12-02T00:07:11Z</time>
      </trkpt>
      <trkpt lat="45.5287" lon="5.37176">
        <ele>511</ele>
        <time>2020-12-02T00:07:24Z</time>
      </trkpt>
      <trkpt lat="45.52897" lon="5.37125">
        <ele>509</ele>
        <time>2020-12-02T00:07:47Z</time>
      </trkpt>
      <trkpt lat="45.52937" lon="5.37083">
        <ele>505</ele>
        <time>2020-12-02T00:08:12Z</time>
      </trkpt>
      <trkpt lat="45.52972" lon="5.37079">
        <ele>501</ele>
        <time>2020-12-02T00:08:29Z</time>
      </trkpt>
      <trkpt lat="45.53005" lon="5.37083">
        <ele>498</ele>
        <time>2020-12-02T00:08:46Z</time>
      </trkpt>
      <trkpt lat="45.53057" lon="5.37061">
        <ele>492</ele>
        <time>2020-12-02T00:09:13Z</time>
      </trkpt>
      <trkpt lat="45.5307" lon="5.37014">
        <ele>487</ele>
        <time>2020-12-02T00:09:31Z</time>
      </trkpt>
      <trkpt lat="45.53119" lon="5.36966">
        <ele>474</ele>
        <time>2020-12-02T00:10:00Z</time>
      </trkpt>
      <trkpt lat="45.53205" lon="5.36904">
        <ele>461</ele>
        <time>2020-12-02T00:10:49Z</time>
      </trkpt>
      <trkpt lat="45.53222" lon="5.36842">
        <ele>458</ele>
        <time>2020-12-02T00:11:12Z</time>
      </trkpt>
      <trkpt lat="45.53225" lon="5.36771">
        <ele>455</ele>
        <time>2020-12-02T00:11:37Z</time>
      </trkpt>
      <trkpt lat="45.53246" lon="5.36659">
        <ele>452</ele>
        <time>2020-12-02T00:12:17Z</time>
      </trkpt>
      <trkpt lat="45.5322" lon="5.3661">
        <ele>452</ele>
        <time>2020-12-02T00:12:39Z</time>
      </trkpt>
      <trkpt lat="45.53187" lon="5.366">
        <ele>453</ele>
        <time>2020-12-02T00:12:56Z</time>
      </trkpt>
      <trkpt lat="45.53134" lon="5.36603">
        <ele>456</ele>
        <time>2020-12-02T00:13:22Z</time>
      </trkpt>
      <trkpt lat="45.53075" lon="5.36628">
        <ele>459</ele>
        <time>2020-12-02T00:13:53Z</time>
      </trkpt>
      <trkpt lat="45.52951" lon="5.36666">
        <ele>464</ele>
        <time>2020-12-02T00:14:57Z</time>
      </trkpt>
      <trkpt lat="45.52892" lon="5.36692">
        <ele>470</ele>
        <time>2020-12-02T00:15:28Z</time>
      </trkpt>
      <trkpt lat="45.52864" lon="5.36699">
        <ele>472</ele>
        <time>2020-12-02T00:15:42Z</time>
      </trkpt>
      <trkpt lat="45.52782" lon="5.36786">
        <ele>479</ele>
        <time>2020-12-02T00:16:33Z</time>
      </trkpt>
      <trkpt lat="45.52763" lon="5.36803">
        <ele>482</ele>
        <time>2020-12-02T00:16:44Z</time>
      </trkpt>
      <trkpt lat="45.5274" lon="5.3681">
        <ele>484</ele>
        <time>2020-12-02T00:16:56Z</time>
      </trkpt>
      <trkpt lat="45.52717" lon="5.36796">
        <ele>485</ele>
        <time>2020-12-02T00:17:08Z</time>
      </trkpt>
      <trkpt lat="45.52691" lon="5.36745">
        <ele>488</ele>
        <time>2020-12-02T00:17:31Z</time>
      </trkpt>
      <trkpt lat="45.52693" lon="5.36721">
        <ele>489</ele>
        <time>2020-12-02T00:17:39Z</time>
      </trkpt>
      <trkpt lat="45.52704" lon="5.36659">
        <ele>493</ele>
        <time>2020-12-02T00:18:01Z</time>
      </trkpt>
      <trkpt lat="45.52695" lon="5.36633">
        <ele>496</ele>
        <time>2020-12-02T00:18:12Z</time>
      </trkpt>
      <trkpt lat="45.52661" lon="5.36595">
        <ele>503</ele>
        <time>2020-12-02T00:18:33Z</time>
      </trkpt>
      <trkpt lat="45.52621" lon="5.36571">
        <ele>505</ele>
        <time>2020-12-02T00:18:55Z</time>
      </trkpt>
      <trkpt lat="45.52522" lon="5.36569">
        <ele>510</ele>
        <time>2020-12-02T00:19:45Z</time>
      </trkpt>
      <trkpt lat="45.52468" lon="5.36596">
        <ele>511</ele>
        <time>2020-12-02T00:20:13Z</time>
      </trkpt>
      <trkpt lat="45.52425" lon="5.36449">
        <ele>512</ele>
        <time>2020-12-02T00:21:09Z</time>
      </trkpt>
      <trkpt lat="45.52481" lon="5.36321">
        <ele>505</ele>
        <time>2020-12-02T00:22:02Z</time>
      </trkpt>
      <trkpt lat="45.5249" lon="5.36241">
        <ele>500</ele>
        <time>2020-12-02T00:22:30Z</time>
      </trkpt>
      <trkpt lat="45.52543" lon="5.36151">
        <ele>501</ele>
        <time>2020-12-02T00:23:12Z</time>
      </trkpt>
      <trkpt lat="45.52538" lon="5.36097">
        <ele>498</ele>
        <time>2020-12-02T00:23:31Z</time>
      </trkpt>
      <trkpt lat="45.52571" lon="5.36042">
        <ele>501</ele>
        <time>2020-12-02T00:23:56Z</time>
      </trkpt>
      <trkpt lat="45.52576" lon="5.35971">
        <ele>496</ele>
        <time>2020-12-02T00:24:21Z</time>
      </trkpt>
      <trkpt lat="45.52553" lon="5.35838">
        <ele>488</ele>
        <time>2020-12-02T00:25:09Z</time>
      </trkpt>
      <trkpt lat="45.52549" lon="5.3575">
        <ele>482</ele>
        <time>2020-12-02T00:25:40Z</time>
      </trkpt>
      <trkpt lat="45.52561" lon="5.35685">
        <ele>477</ele>
        <time>2020-12-02T00:26:04Z</time>
      </trkpt>
      <trkpt lat="45.52622" lon="5.35597">
        <ele>468</ele>
        <time>2020-12-02T00:26:47Z</time>
      </trkpt>
      <trkpt lat="45.52655" lon="5.35537">
        <ele>469</ele>
        <time>2020-12-02T00:27:14Z</time>
      </trkpt>
      <trkpt lat="45.52816" lon="5.35432">
        <ele>466</ele>
        <time>2020-12-02T00:28:42Z</time>
      </trkpt>
      <trkpt lat="45.52762" lon="5.35181">
        <ele>474</ele>
        <time>2020-12-02T00:30:14Z</time>
      </trkpt>
      <trkpt lat="45.52789" lon="5.35176">
        <ele>471</ele>
        <time>2020-12-02T00:30:28Z</time>
      </trkpt>
      <trkpt lat="45.52802" lon="5.35042">
        <ele>469</ele>
        <time>2020-12-02T00:31:15Z</time>
      </trkpt>
      <trkpt lat="45.52821" lon="5.34981">
        <ele>469</ele>
        <time>2020-12-02T00:31:39Z</time>
      </trkpt>
      <trkpt lat="45.52826" lon="5.34919">
        <ele>469</ele>
        <time>2020-12-02T00:32:01Z</time>
      </trkpt>
      <trkpt lat="45.52838" lon="5.34878">
        <ele>468</ele>
        <time>2020-12-02T00:32:16Z</time>
      </trkpt>
      <trkpt lat="45.52838" lon="5.34778">
        <ele>466</ele>
        <time>2020-12-02T00:32:51Z</time>
      </trkpt>
      <trkpt lat="45.5285" lon="5.34705">
        <ele>467</ele>
        <time>2020-12-02T00:33:18Z</time>
      </trkpt>
      <trkpt lat="45.52915" lon="5.34642">
        <ele>465</ele>
        <time>2020-12-02T00:33:57Z</time>
      </trkpt>
      <trkpt lat="45.52999" lon="5.34464">
        <ele>457</ele>
        <time>2020-12-02T00:35:12Z</time>
      </trkpt>
      <trkpt lat="45.53015" lon="5.34461">
        <ele>456.1</ele>
      </trkpt>
      <trkpt lat="45.53075" lon="5.3439">
        <ele>441.7</ele>
      </trkpt>
      <trkpt lat="45.53148" lon="5.34367">
        <ele>437.8</ele>
      </trkpt>
      <trkpt lat="45.53265" lon="5.34363">
        <ele>434.3</ele>
      </trkpt>
      <trkpt lat="45.53296" lon="5.34341">
        <ele>429.5</ele>
      </trkpt>
      <trkpt lat="45.5337" lon="5.3436">
        <ele>420.5</ele>
      </trkpt>
      <trkpt lat="45.534" lon="5.34371">
        <ele>414.3</ele>
      </trkpt>
      <trkpt lat="45.53462" lon="5.34243">
        <ele>411.9</ele>
      </trkpt>
      <trkpt lat="45.53518" lon="5.34259">
        <ele>406.4</ele>
      </trkpt>
      <trkpt lat="45.53588" lon="5.34197">
        <ele>404.9</ele>
      </trkpt>
      <trkpt lat="45.5367" lon="5.3407">
        <ele>395.8</ele>
      </trkpt>
      <trkpt lat="45.53761" lon="5.33795">
        <ele>400.2</ele>
      </trkpt>
      <trkpt lat="45.53812" lon="5.33663">
        <ele>398.4</ele>
      </trkpt>
      <trkpt lat="45.53825" lon="5.33596">
        <ele>397.9</ele>
      </trkpt>
      <trkpt lat="45.53807" lon="5.33369">
        <ele>396.8</ele>
      </trkpt>
      <trkpt lat="45.53828" lon="5.33294">
        <ele>396.7</ele>
      </trkpt>
      <trkpt lat="45.54082" lon="5.33116">
        <ele>393.6</ele>
      </trkpt>
      <trkpt lat="45.54215" lon="5.33069">
        <ele>391.6</ele>
      </trkpt>
      <trkpt lat="45.54284" lon="5.32935">
        <ele>397.1</ele>
      </trkpt>
      <trkpt lat="45.54317" lon="5.32729">
        <ele>386</ele>
      </trkpt>
      <trkpt lat="45.54368" lon="5.32472">
        <ele>384.8</ele>
      </trkpt>
      <trkpt lat="45.54416" lon="5.3236">
        <ele>374.1</ele>
      </trkpt>
      <trkpt lat="45.54356" lon="5.32171">
        <ele>370</ele>
      </trkpt>
      <trkpt lat="45.5429" lon="5.32023">
        <ele>365.8</ele>
      </trkpt>
      <trkpt lat="45.54259" lon="5.31871">
        <ele>359.7</ele>
      </trkpt>
      <trkpt lat="45.54222" lon="5.31781">
        <ele>357.9</ele>
      </trkpt>
      <trkpt lat="45.54314" lon="5.31414">
        <ele>339.7</ele>
      </trkpt>
      <trkpt lat="45.54529" lon="5.31292">
        <ele>328</ele>
      </trkpt>
      <trkpt lat="45.54608" lon="5.31277">
        <ele>328.8</ele>
      </trkpt>
      <trkpt lat="45.54678" lon="5.31236">
        <ele>327.7</ele>
      </trkpt>
      <trkpt lat="45.54688" lon="5.31109">
        <ele>327.4</ele>
      </trkpt>
      <trkpt lat="45.54678" lon="5.31004">
        <ele>337.5</ele>
      </trkpt>
      <trkpt lat="45.54754" lon="5.30978">
        <ele>334.5</ele>
      </trkpt>
      <trkpt lat="45.54873" lon="5.30815">
        <ele>328.8</ele>
      </trkpt>
      <trkpt lat="45.54943" lon="5.30506">
        <ele>358.1</ele>
      </trkpt>
      <trkpt lat="45.54998" lon="5.30395">
        <ele>367.5</ele>
      </trkpt>
      <trkpt lat="45.55076" lon="5.30294">
        <ele>364.6</ele>
      </trkpt>
      <trkpt lat="45.55243" lon="5.30228">
        <ele>355.4</ele>
      </trkpt>
      <trkpt lat="45.55272" lon="5.30165">
        <ele>364.2</ele>
      </trkpt>
      <trkpt lat="45.55416" lon="5.30095">
        <ele>347.6</ele>
      </trkpt>
      <trkpt lat="45.55434" lon="5.30039">
        <ele>349.7</ele>
      </trkpt>
      <trkpt lat="45.55407" lon="5.2997">
        <ele>351.5</ele>
      </trkpt>
      <trkpt lat="45.55619" lon="5.30031">
        <ele>355.2</ele>
      </trkpt>
      <trkpt lat="45.55712" lon="5.29928">
        <ele>367.1</ele>
      </trkpt>
      <trkpt lat="45.55752" lon="5.29852">
        <ele>375.1</ele>
      </trkpt>
      <trkpt lat="45.55847" lon="5.29724">
        <ele>364.8</ele>
      </trkpt>
      <trkpt lat="45.55964" lon="5.29509">
        <ele>353</ele>
      </trkpt>
      <trkpt lat="45.55942" lon="5.29367">
        <ele>346.7</ele>
      </trkpt>
      <trkpt lat="45.55906" lon="5.29168">
        <ele>355.5</ele>
      </trkpt>
      <trkpt lat="45.55888" lon="5.2902">
        <ele>360.6</ele>
      </trkpt>
      <trkpt lat="45.55846" lon="5.28781">
        <ele>363.2</ele>
      </trkpt>
      <trkpt lat="45.5585" lon="5.28684">
        <ele>364.6</ele>
      </trkpt>
      <trkpt lat="45.55899" lon="5.28651">
        <ele>367.4</ele>
      </trkpt>
      <trkpt lat="45.55874" lon="5.28525">
        <ele>368</ele>
      </trkpt>
      <trkpt lat="45.5595" lon="5.28491">
        <ele>368.6</ele>
      </trkpt>
      <trkpt lat="45.55942" lon="5.28396">
        <ele>370.2</ele>
      </trkpt>
      <trkpt lat="45.55983" lon="5.28375">
        <ele>370.1</ele>
      </trkpt>
    </trkseg>
  </trk>
</gpx>